sensor_id;sensor_type;location;lat;lon;timestamp;pressure;altitude;pressure_sealevel;temperature;humidity
4767;BME280;2397;53.576;9.746;2023-02-19T00:01:34;101462.72;;;3.86;100.00
4767;BME280;2397;53.576;9.746;2023-02-19T00:04:07;101461.44;;;3.78;100.00
4767;BME280;2397;53.576;9.746;2023-02-19T00:06:34;101456.78;;;3.71;100.00
4767;BME280;2397;53.576;9.746;2023-02-19T00:09:01;101458.47;;;3.71;100.00
4767;BME280;2397;53.576;9.746;2023-02-19T00:11:30;101461.81;;;3.69;100.00
4767;BME280;2397;53.576;9.746;2023-02-19T00:13:58;101460.13;;;3.70;100.00
4767;BME280;2397;53.576;9.746;2023-02-19T00:16:36;101456.78;;;3.71;100.00
4767;BME280;2397;53.576;9.746;2023-02-19T00:19:06;101465.09;;;3.67;100.00
4767;BME280;2397;53.576;9.746;2023-02-19T00:21:33;101467.66;;;3.67;100.00
4767;BME280;2397;53.576;9.746;2023-02-19T00:24:01;101466.78;;;3.66;100.00
4767;BME280;2397;53.576;9.746;2023-02-19T00:26:28;101464.94;;;3.64;100.00
4767;BME280;2397;53.576;9.746;2023-02-19T00:28:56;101458.94;;;3.63;100.00
4767;BME280;2397;53.576;9.746;2023-02-19T00:31:31;101458.84;;;3.62;100.00
4767;BME280;2397;53.576;9.746;2023-02-19T00:34:04;101460.78;;;3.66;100.00
4767;BME280;2397;53.576;9.746;2023-02-19T00:36:32;101459.88;;;3.65;100.00
4767;BME280;2397;53.576;9.746;2023-02-19T00:38:59;101462.91;;;3.58;100.00
4767;BME280;2397;53.576;9.746;2023-02-19T00:41:25;101473.34;;;3.61;100.00
4767;BME280;2397;53.576;9.746;2023-02-19T00:43:54;101470.59;;;3.58;100.00
4767;BME280;2397;53.576;9.746;2023-02-19T00:46:25;101468.63;;;3.53;100.00
4767;BME280;2397;53.576;9.746;2023-02-19T00:48:52;101472.66;;;3.49;100.00
4767;BME280;2397;53.576;9.746;2023-02-19T00:51:21;101470.81;;;3.46;100.00
4767;BME280;2397;53.576;9.746;2023-02-19T00:53:48;101477.63;;;3.46;100.00
4767;BME280;2397;53.576;9.746;2023-02-19T00:56:14;101469.41;;;3.51;100.00
4767;BME280;2397;53.576;9.746;2023-02-19T00:58:41;101474.44;;;3.50;100.00
4767;BME280;2397;53.576;9.746;2023-02-19T01:01:08;101476.22;;;3.51;100.00
4767;BME280;2397;53.576;9.746;2023-02-19T01:03:37;101478.50;;;3.46;100.00
4767;BME280;2397;53.576;9.746;2023-02-19T01:06:05;101483.81;;;3.49;100.00
4767;BME280;2397;53.576;9.746;2023-02-19T01:08:32;101475.84;;;3.45;100.00
4767;BME280;2397;53.576;9.746;2023-02-19T01:11:00;101475.84;;;3.45;100.00
4767;BME280;2397;53.576;9.746;2023-02-19T01:13:27;101484.59;;;3.48;100.00
4767;BME280;2397;53.576;9.746;2023-02-19T01:16:04;101481.56;;;3.56;100.00
4767;BME280;2397;53.576;9.746;2023-02-19T01:18:32;101479.00;;;3.56;100.00
4767;BME280;2397;53.576;9.746;2023-02-19T01:20:58;101484.13;;;3.56;100.00
4767;BME280;2397;53.576;9.746;2023-02-19T01:23:25;101485.63;;;3.52;100.00
4767;BME280;2397;53.576;9.746;2023-02-19T01:25:51;101481.50;;;3.54;100.00
4767;BME280;2397;53.576;9.746;2023-02-19T01:28:18;101477.88;;;3.50;100.00
4767;BME280;2397;53.576;9.746;2023-02-19T01:30:44;101479.41;;;3.47;100.00
4767;BME280;2397;53.576;9.746;2023-02-19T01:33:10;101473.72;;;3.53;100.00
4767;BME280;2397;53.576;9.746;2023-02-19T01:35:37;101478.03;;;3.54;100.00
4767;BME280;2397;53.576;9.746;2023-02-19T01:38:04;101475.22;;;3.49;100.00
4767;BME280;2397;53.576;9.746;2023-02-19T01:40:33;101476.28;;;3.53;100.00
4767;BME280;2397;53.576;9.746;2023-02-19T01:43:00;101465.31;;;3.55;100.00
4767;BME280;2397;53.576;9.746;2023-02-19T01:45:30;101464.69;;;3.59;100.00
4767;BME280;2397;53.576;9.746;2023-02-19T01:50:43;101466.84;;;3.68;100.00
4767;BME280;2397;53.576;9.746;2023-02-19T01:53:12;101471.50;;;3.59;100.00
4767;BME280;2397;53.576;9.746;2023-02-19T01:55:39;101473.06;;;3.57;100.00
4767;BME280;2397;53.576;9.746;2023-02-19T01:58:07;101468.94;;;3.59;100.00
4767;BME280;2397;53.576;9.746;2023-02-19T02:00:34;101462.84;;;3.57;100.00
4767;BME280;2397;53.576;9.746;2023-02-19T02:03:02;101468.63;;;3.53;100.00
4767;BME280;2397;53.576;9.746;2023-02-19T02:05:52;101466.84;;;3.51;100.00
4767;BME280;2397;53.576;9.746;2023-02-19T02:08:21;101464.13;;;3.48;100.00
4767;BME280;2397;53.576;9.746;2023-02-19T02:11:07;101471.78;;;3.48;100.00
4767;BME280;2397;53.576;9.746;2023-02-19T02:13:36;101466.59;;;3.47;100.00
4767;BME280;2397;53.576;9.746;2023-02-19T02:16:16;101470.72;;;3.45;100.00
4767;BME280;2397;53.576;9.746;2023-02-19T02:18:56;101474.81;;;3.41;100.00
4767;BME280;2397;53.576;9.746;2023-02-19T02:29:53;101480.16;;;3.29;100.00
4767;BME280;2397;53.576;9.746;2023-02-19T02:32:26;101477.66;;;3.31;100.00
4767;BME280;2397;53.576;9.746;2023-02-19T02:35:01;101482.47;;;3.25;100.00
4767;BME280;2397;53.576;9.746;2023-02-19T02:37:33;101481.47;;;3.23;100.00
4767;BME280;2397;53.576;9.746;2023-02-19T02:40:02;101479.66;;;3.20;100.00
4767;BME280;2397;53.576;9.746;2023-02-19T02:42:29;101477.72;;;3.16;100.00
4767;BME280;2397;53.576;9.746;2023-02-19T02:44:57;101474.28;;;3.15;100.00
4767;BME280;2397;53.576;9.746;2023-02-19T02:47:53;101477.63;;;3.14;100.00
4767;BME280;2397;53.576;9.746;2023-02-19T02:50:30;101476.03;;;3.16;100.00
4767;BME280;2397;53.576;9.746;2023-02-19T02:53:02;101475.59;;;3.09;100.00
4767;BME280;2397;53.576;9.746;2023-02-19T02:55:50;101477.28;;;3.08;100.00
4767;BME280;2397;53.576;9.746;2023-02-19T02:58:19;101478.16;;;3.09;100.00
4767;BME280;2397;53.576;9.746;2023-02-19T03:00:51;101480.81;;;3.10;100.00
4767;BME280;2397;53.576;9.746;2023-02-19T03:03:41;101485.66;;;3.06;100.00
4767;BME280;2397;53.576;9.746;2023-02-19T03:06:10;101487.53;;;3.08;100.00
4767;BME280;2397;53.576;9.746;2023-02-19T03:08:57;101483.91;;;3.05;100.00
4767;BME280;2397;53.576;9.746;2023-02-19T03:11:25;101482.16;;;3.04;100.00
4767;BME280;2397;53.576;9.746;2023-02-19T03:14:37;101491.31;;;3.00;100.00
4767;BME280;2397;53.576;9.746;2023-02-19T03:17:30;101488.69;;;2.98;100.00
4767;BME280;2397;53.576;9.746;2023-02-19T03:20:18;101497.59;;;3.05;100.00
4767;BME280;2397;53.576;9.746;2023-02-19T03:22:47;101500.31;;;3.08;100.00
4767;BME280;2397;53.576;9.746;2023-02-19T03:25:23;101498.72;;;3.10;100.00
4767;BME280;2397;53.576;9.746;2023-02-19T03:28:11;101503.66;;;3.07;100.00
4767;BME280;2397;53.576;9.746;2023-02-19T03:30:41;101513.72;;;3.04;100.00
4767;BME280;2397;53.576;9.746;2023-02-19T03:33:13;101513.88;;;3.07;100.00
4767;BME280;2397;53.576;9.746;2023-02-19T03:35:46;101515.50;;;3.05;100.00
4767;BME280;2397;53.576;9.746;2023-02-19T03:38:17;101517.16;;;3.05;100.00
4767;BME280;2397;53.576;9.746;2023-02-19T03:40:58;101518.66;;;3.01;100.00
4767;BME280;2397;53.576;9.746;2023-02-19T03:43:36;101517.59;;;2.97;100.00
4767;BME280;2397;53.576;9.746;2023-02-19T03:46:10;101522.91;;;3.01;100.00
4767;BME280;2397;53.576;9.746;2023-02-19T03:49:04;101519.00;;;3.07;100.00
4767;BME280;2397;53.576;9.746;2023-02-19T03:51:41;101524.13;;;3.07;100.00
4767;BME280;2397;53.576;9.746;2023-02-19T03:56:58;101513.88;;;3.07;100.00
4767;BME280;2397;53.576;9.746;2023-02-19T03:59:53;101525.91;;;3.08;100.00
4767;BME280;2397;53.576;9.746;2023-02-19T04:02:32;101528.97;;;3.03;100.00
4767;BME280;2397;53.576;9.746;2023-02-19T04:05:08;101534.19;;;3.04;100.00
4767;BME280;2397;53.576;9.746;2023-02-19T04:07:43;101532.31;;;3.02;100.00
4767;BME280;2397;53.576;9.746;2023-02-19T04:10:11;101539.66;;;2.95;100.00
4767;BME280;2397;53.576;9.746;2023-02-19T04:12:42;101543.91;;;2.95;100.00
4767;BME280;2397;53.576;9.746;2023-02-19T04:15:14;101545.28;;;2.90;100.00
4767;BME280;2397;53.576;9.746;2023-02-19T04:17:46;101552.97;;;2.90;100.00
4767;BME280;2397;53.576;9.746;2023-02-19T04:20:15;101550.31;;;3.03;100.00
4767;BME280;2397;53.576;9.746;2023-02-19T04:22:42;101558.97;;;3.05;100.00
4767;BME280;2397;53.576;9.746;2023-02-19T04:25:08;101570.00;;;3.04;100.00
4767;BME280;2397;53.576;9.746;2023-02-19T04:27:38;101572.47;;;3.03;100.00
4767;BME280;2397;53.576;9.746;2023-02-19T04:30:06;101582.34;;;2.96;100.00
4767;BME280;2397;53.576;9.746;2023-02-19T04:32:33;101585.25;;;3.03;100.00
4767;BME280;2397;53.576;9.746;2023-02-19T04:35:00;101589.13;;;2.96;100.00
4767;BME280;2397;53.576;9.746;2023-02-19T04:37:26;101598.56;;;2.97;100.00
4767;BME280;2397;53.576;9.746;2023-02-19T04:39:52;101602.72;;;2.95;100.00
4767;BME280;2397;53.576;9.746;2023-02-19T04:42:19;101593.72;;;2.87;100.00
4767;BME280;2397;53.576;9.746;2023-02-19T04:44:45;101602.41;;;2.75;100.00
4767;BME280;2397;53.576;9.746;2023-02-19T04:47:12;101607.34;;;2.72;100.00
4767;BME280;2397;53.576;9.746;2023-02-19T04:49:38;101607.44;;;2.74;100.00
4767;BME280;2397;53.576;9.746;2023-02-19T04:52:04;101605.34;;;2.81;100.00
4767;BME280;2397;53.576;9.746;2023-02-19T04:54:31;101609.66;;;2.83;100.00
4767;BME280;2397;53.576;9.746;2023-02-19T04:56:57;101610.56;;;2.83;100.00
4767;BME280;2397;53.576;9.746;2023-02-19T04:59:24;101612.31;;;2.84;100.00
4767;BME280;2397;53.576;9.746;2023-02-19T05:01:50;101614.59;;;2.79;100.00
4767;BME280;2397;53.576;9.746;2023-02-19T05:04:16;101614.22;;;2.73;100.00
4767;BME280;2397;53.576;9.746;2023-02-19T05:06:43;101618.56;;;2.74;100.00
4767;BME280;2397;53.576;9.746;2023-02-19T05:09:09;101610.97;;;2.76;100.00
4767;BME280;2397;53.576;9.746;2023-02-19T05:11:36;101614.94;;;2.71;100.00
4767;BME280;2397;53.576;9.746;2023-02-19T05:14:02;101614.28;;;2.60;100.00
4767;BME280;2397;53.576;9.746;2023-02-19T05:16:29;101612.09;;;2.66;100.00
4767;BME280;2397;53.576;9.746;2023-02-19T05:18:55;101620.03;;;2.71;100.00
4767;BME280;2397;53.576;9.746;2023-02-19T05:21:21;101621.53;;;2.67;100.00
4767;BME280;2397;53.576;9.746;2023-02-19T05:23:48;101624.88;;;2.66;100.00
4767;BME280;2397;53.576;9.746;2023-02-19T05:26:19;101625.47;;;2.62;100.00
4767;BME280;2397;53.576;9.746;2023-02-19T05:28:48;101639.06;;;2.61;100.00
4767;BME280;2397;53.576;9.746;2023-02-19T05:31:16;101643.19;;;2.59;100.00
4767;BME280;2397;53.576;9.746;2023-02-19T05:33:42;101644.69;;;2.55;100.00
4767;BME280;2397;53.576;9.746;2023-02-19T05:36:11;101656.41;;;2.52;100.00
4767;BME280;2397;53.576;9.746;2023-02-19T05:38:39;101645.97;;;2.49;100.00
4767;BME280;2397;53.576;9.746;2023-02-19T05:41:20;101642.38;;;2.45;100.00
4767;BME280;2397;53.576;9.746;2023-02-19T05:43:47;101649.16;;;2.44;100.00
4767;BME280;2397;53.576;9.746;2023-02-19T05:46:17;101652.31;;;2.40;100.00
4767;BME280;2397;53.576;9.746;2023-02-19T05:48:45;101657.59;;;2.43;100.00
4767;BME280;2397;53.576;9.746;2023-02-19T05:51:15;101667.56;;;2.39;100.00
4767;BME280;2397;53.576;9.746;2023-02-19T05:53:43;101675.13;;;2.37;100.00
4767;BME280;2397;53.576;9.746;2023-02-19T05:59:05;101663.53;;;2.29;100.00
4767;BME280;2397;53.576;9.746;2023-02-19T06:01:33;101673.75;;;2.29;100.00
4767;BME280;2397;53.576;9.746;2023-02-19T06:04:00;101690.78;;;2.28;100.00
4767;BME280;2397;53.576;9.746;2023-02-19T06:06:26;101692.63;;;2.31;100.00
4767;BME280;2397;53.576;9.746;2023-02-19T06:08:53;101703.66;;;2.17;100.00
4767;BME280;2397;53.576;9.746;2023-02-19T06:11:20;101707.91;;;2.16;100.00
4767;BME280;2397;53.576;9.746;2023-02-19T06:13:46;101707.47;;;2.10;100.00
4767;BME280;2397;53.576;9.746;2023-02-19T06:16:16;101723.63;;;2.09;100.00
4767;BME280;2397;53.576;9.746;2023-02-19T06:18:43;101729.97;;;2.16;100.00
4767;BME280;2397;53.576;9.746;2023-02-19T06:21:11;101738.94;;;2.09;100.00
4767;BME280;2397;53.576;9.746;2023-02-19T06:23:38;101747.56;;;2.11;100.00
4767;BME280;2397;53.576;9.746;2023-02-19T06:26:13;101755.91;;;2.08;100.00
4767;BME280;2397;53.576;9.746;2023-02-19T06:28:41;101749.16;;;2.09;100.00
4767;BME280;2397;53.576;9.746;2023-02-19T06:31:08;101757.69;;;2.09;100.00
4767;BME280;2397;53.576;9.746;2023-02-19T06:33:36;101768.59;;;2.20;100.00
4767;BME280;2397;53.576;9.746;2023-02-19T06:36:08;101771.84;;;2.18;100.00
4767;BME280;2397;53.576;9.746;2023-02-19T06:38:35;101775.38;;;2.20;100.00
4767;BME280;2397;53.576;9.746;2023-02-19T06:41:03;101777.06;;;2.19;100.00
4767;BME280;2397;53.576;9.746;2023-02-19T06:43:31;101782.94;;;2.18;100.00
4767;BME280;2397;53.576;9.746;2023-02-19T06:46:02;101777.94;;;2.20;100.00
4767;BME280;2397;53.576;9.746;2023-02-19T06:48:30;101795.91;;;2.21;100.00
4767;BME280;2397;53.576;9.746;2023-02-19T06:50:57;101791.66;;;2.22;100.00
4767;BME280;2397;53.576;9.746;2023-02-19T06:53:24;101789.63;;;2.16;100.00
4767;BME280;2397;53.576;9.746;2023-02-19T06:55:55;101806.69;;;2.04;100.00
4767;BME280;2397;53.576;9.746;2023-02-19T06:58:22;101800.13;;;1.94;100.00
4767;BME280;2397;53.576;9.746;2023-02-19T07:00:48;101803.84;;;1.99;100.00
4767;BME280;2397;53.576;9.746;2023-02-19T07:03:15;101804.91;;;2.03;100.00
4767;BME280;2397;53.576;9.746;2023-02-19T07:05:41;101813.78;;;2.08;100.00
4767;BME280;2397;53.576;9.746;2023-02-19T07:08:09;101819.28;;;2.01;100.00
4767;BME280;2397;53.576;9.746;2023-02-19T07:10:35;101819.94;;;1.98;100.00
4767;BME280;2397;53.576;9.746;2023-02-19T07:13:02;101827.59;;;1.98;100.00
4767;BME280;2397;53.576;9.746;2023-02-19T07:15:28;101843.94;;;2.14;100.00
4767;BME280;2397;53.576;9.746;2023-02-19T07:17:55;101854.66;;;2.21;100.00
4767;BME280;2397;53.576;9.746;2023-02-19T07:20:21;101850.72;;;2.26;100.00
4767;BME280;2397;53.576;9.746;2023-02-19T07:22:47;101854.75;;;2.23;100.00
4767;BME280;2397;53.576;9.746;2023-02-19T07:25:14;101858.19;;;2.23;100.00
4767;BME280;2397;53.576;9.746;2023-02-19T07:27:40;101865.38;;;2.29;100.00
4767;BME280;2397;53.576;9.746;2023-02-19T07:30:07;101869.50;;;2.27;100.00
4767;BME280;2397;53.576;9.746;2023-02-19T07:32:34;101871.38;;;2.30;100.00
4767;BME280;2397;53.576;9.746;2023-02-19T07:35:00;101876.19;;;2.38;100.00
4767;BME280;2397;53.576;9.746;2023-02-19T07:37:26;101877.97;;;2.39;100.00
4767;BME280;2397;53.576;9.746;2023-02-19T07:39:53;101890.84;;;2.41;100.00
4767;BME280;2397;53.576;9.746;2023-02-19T07:42:19;101888.19;;;2.39;100.00
4767;BME280;2397;53.576;9.746;2023-02-19T07:44:46;101896.06;;;2.42;100.00
4767;BME280;2397;53.576;9.746;2023-02-19T07:47:12;101896.75;;;2.40;100.00
4767;BME280;2397;53.576;9.746;2023-02-19T07:49:39;101900.00;;;2.37;100.00
4767;BME280;2397;53.576;9.746;2023-02-19T07:52:05;101913.75;;;2.39;100.00
4767;BME280;2397;53.576;9.746;2023-02-19T07:54:31;101911.97;;;2.38;100.00
4767;BME280;2397;53.576;9.746;2023-02-19T07:56:58;101920.25;;;2.34;100.00
4767;BME280;2397;53.576;9.746;2023-02-19T07:59:24;101918.16;;;2.28;100.00
4767;BME280;2397;53.576;9.746;2023-02-19T08:01:51;101925.81;;;2.28;100.00
4767;BME280;2397;53.576;9.746;2023-02-19T08:04:36;101933.50;;;2.28;100.00
4767;BME280;2397;53.576;9.746;2023-02-19T08:07:02;101931.72;;;2.27;100.00
4767;BME280;2397;53.576;9.746;2023-02-19T08:09:30;101934.94;;;2.25;100.00
4767;BME280;2397;53.576;9.746;2023-02-19T08:11:57;101926.41;;;2.24;100.00
4767;BME280;2397;53.576;9.746;2023-02-19T08:14:42;101928.28;;;2.27;100.00
4767;BME280;2397;53.576;9.746;2023-02-19T08:17:08;101924.25;;;2.31;100.00
4767;BME280;2397;53.576;9.746;2023-02-19T08:19:35;101921.81;;;2.45;100.00
4767;BME280;2397;53.576;9.746;2023-02-19T08:22:01;101932.66;;;2.55;100.00
4767;BME280;2397;53.576;9.746;2023-02-19T08:24:28;101933.03;;;2.61;100.00
4767;BME280;2397;53.576;9.746;2023-02-19T08:26:54;101929.81;;;2.90;100.00
4767;BME280;2397;53.576;9.746;2023-02-19T08:29:20;101925.25;;;3.13;100.00
4767;BME280;2397;53.576;9.746;2023-02-19T08:31:47;101935.78;;;3.17;100.00
4767;BME280;2397;53.576;9.746;2023-02-19T08:34:13;101937.56;;;3.19;100.00
4767;BME280;2397;53.576;9.746;2023-02-19T08:36:40;101941.47;;;3.13;100.00
4767;BME280;2397;53.576;9.746;2023-02-19T08:39:06;101950.81;;;3.26;100.00
4767;BME280;2397;53.576;9.746;2023-02-19T08:41:32;101958.50;;;3.26;100.00
4767;BME280;2397;53.576;9.746;2023-02-19T08:43:59;101957.19;;;3.33;100.00
4767;BME280;2397;53.576;9.746;2023-02-19T08:46:25;101960.75;;;3.35;100.00
4767;BME280;2397;53.576;9.746;2023-02-19T08:48:52;101966.34;;;3.43;100.00
4767;BME280;2397;53.576;9.746;2023-02-19T08:51:18;101965.16;;;3.51;100.00
4767;BME280;2397;53.576;9.746;2023-02-19T08:53:44;101973.31;;;3.59;100.00
4767;BME280;2397;53.576;9.746;2023-02-19T08:56:13;101985.19;;;3.72;100.00
4767;BME280;2397;53.576;9.746;2023-02-19T08:58:40;101987.94;;;3.75;100.00
4767;BME280;2397;53.576;9.746;2023-02-19T09:01:09;101990.38;;;3.86;100.00
4767;BME280;2397;53.576;9.746;2023-02-19T09:03:37;102000.38;;;3.97;100.00
4767;BME280;2397;53.576;9.746;2023-02-19T09:06:03;102000.56;;;4.00;100.00
4767;BME280;2397;53.576;9.746;2023-02-19T09:08:30;102004.88;;;4.01;100.00
4767;BME280;2397;53.576;9.746;2023-02-19T09:10:58;102006.66;;;4.02;100.00
4767;BME280;2397;53.576;9.746;2023-02-19T09:13:24;102014.34;;;4.02;100.00
4767;BME280;2397;53.576;9.746;2023-02-19T09:15:51;102014.25;;;4.00;100.00
4767;BME280;2397;53.576;9.746;2023-02-19T09:18:17;102014.78;;;4.10;100.00
4767;BME280;2397;53.576;9.746;2023-02-19T09:20:44;102012.66;;;4.02;100.00
4767;BME280;2397;53.576;9.746;2023-02-19T09:23:10;102018.78;;;4.04;100.00
4767;BME280;2397;53.576;9.746;2023-02-19T09:25:36;102022.47;;;4.10;100.00
4767;BME280;2397;53.576;9.746;2023-02-19T09:28:03;102022.56;;;4.11;100.00
4767;BME280;2397;53.576;9.746;2023-02-19T09:30:29;102028.50;;;4.10;100.00
4767;BME280;2397;53.576;9.746;2023-02-19T09:32:56;102036.97;;;4.09;100.00
4767;BME280;2397;53.576;9.746;2023-02-19T09:35:22;102036.38;;;4.13;100.00
4767;BME280;2397;53.576;9.746;2023-02-19T09:37:49;102035.75;;;4.17;100.00
4767;BME280;2397;53.576;9.746;2023-02-19T09:40:15;102040.28;;;4.21;100.00
4767;BME280;2397;53.576;9.746;2023-02-19T09:42:48;102038.41;;;4.19;100.00
4767;BME280;2397;53.576;9.746;2023-02-19T09:45:21;102041.88;;;4.19;100.00
4767;BME280;2397;53.576;9.746;2023-02-19T09:47:52;102053.09;;;4.21;100.00
4767;BME280;2397;53.576;9.746;2023-02-19T09:50:22;102048.88;;;4.22;100.00
4767;BME280;2397;53.576;9.746;2023-02-19T09:52:56;102062.84;;;4.27;100.00
4767;BME280;2397;53.576;9.746;2023-02-19T09:55:35;102074.72;;;4.40;100.00
4767;BME280;2397;53.576;9.746;2023-02-19T09:58:12;102078.34;;;4.44;100.00
4767;BME280;2397;53.576;9.746;2023-02-19T10:00:40;102088.69;;;4.45;100.00
4767;BME280;2397;53.576;9.746;2023-02-19T10:03:16;102095.97;;;4.52;100.00
4767;BME280;2397;53.576;9.746;2023-02-19T10:05:45;102103.13;;;4.58;100.00
4767;BME280;2397;53.576;9.746;2023-02-19T10:08:18;102097.75;;;4.53;100.00
4767;BME280;2397;53.576;9.746;2023-02-19T10:10:45;102100.56;;;4.58;100.00
4767;BME280;2397;53.576;9.746;2023-02-19T10:13:22;102101.91;;;4.66;100.00
4767;BME280;2397;53.576;9.746;2023-02-19T10:15:53;102107.16;;;4.83;100.00
4767;BME280;2397;53.576;9.746;2023-02-19T10:18:25;102103.97;;;5.02;100.00
4767;BME280;2397;53.576;9.746;2023-02-19T10:20:54;102100.69;;;5.19;100.00
4767;BME280;2397;53.576;9.746;2023-02-19T10:23:23;102104.78;;;5.31;100.00
4767;BME280;2397;53.576;9.746;2023-02-19T10:25:54;102113.31;;;5.46;100.00
4767;BME280;2397;53.576;9.746;2023-02-19T10:28:33;102117.75;;;5.49;100.00
4767;BME280;2397;53.576;9.746;2023-02-19T10:31:02;102121.50;;;5.54;100.00
4767;BME280;2397;53.576;9.746;2023-02-19T10:33:29;102117.91;;;5.67;100.00
4767;BME280;2397;53.576;9.746;2023-02-19T10:35:59;102124.13;;;5.70;100.00
4767;BME280;2397;53.576;9.746;2023-02-19T10:38:30;102120.00;;;5.74;100.00
4767;BME280;2397;53.576;9.746;2023-02-19T10:41:07;102125.94;;;5.73;100.00
4767;BME280;2397;53.576;9.746;2023-02-19T10:43:41;102125.66;;;5.83;100.00
4767;BME280;2397;53.576;9.746;2023-02-19T10:46:20;102133.47;;;6.00;100.00
4767;BME280;2397;53.576;9.746;2023-02-19T10:48:56;102133.88;;;6.07;100.00
4767;BME280;2397;53.576;9.746;2023-02-19T10:51:31;102142.94;;;6.17;100.00
4767;BME280;2397;53.576;9.746;2023-02-19T10:54:27;102149.47;;;6.27;100.00
4767;BME280;2397;53.576;9.746;2023-02-19T10:59:54;102156.03;;;6.05;100.00
4767;BME280;2397;53.576;9.746;2023-02-19T11:02:25;102164.09;;;6.11;100.00
4767;BME280;2397;53.576;9.746;2023-02-19T11:07:29;102171.03;;;5.97;100.00
4767;BME280;2397;53.576;9.746;2023-02-19T11:09:56;102172.03;;;6.00;100.00
4767;BME280;2397;53.576;9.746;2023-02-19T11:12:26;102166.06;;;6.01;100.00
4767;BME280;2397;53.576;9.746;2023-02-19T11:14:53;102167.63;;;6.13;100.00
4767;BME280;2397;53.576;9.746;2023-02-19T11:17:26;102169.50;;;6.32;100.00
4767;BME280;2397;53.576;9.746;2023-02-19T11:19:56;102167.09;;;6.36;100.00
4767;BME280;2397;53.576;9.746;2023-02-19T11:22:37;102161.66;;;6.46;100.00
4767;BME280;2397;53.576;9.746;2023-02-19T11:25:07;102163.19;;;6.59;100.00
4767;BME280;2397;53.576;9.746;2023-02-19T11:28:20;102175.13;;;6.75;100.00
4767;BME280;2397;53.576;9.746;2023-02-19T11:30:48;102176.03;;;6.92;100.00
4767;BME280;2397;53.576;9.746;2023-02-19T11:35:42;102178.13;;;6.66;100.00
4767;BME280;2397;53.576;9.746;2023-02-19T11:38:10;102178.28;;;6.69;100.00
4767;BME280;2397;53.576;9.746;2023-02-19T11:54:46;102183.00;;;6.94;100.00
4767;BME280;2397;53.576;9.746;2023-02-19T11:57:29;102182.22;;;6.79;100.00
4767;BME280;2397;53.576;9.746;2023-02-19T12:00:18;102172.25;;;6.68;100.00
4767;BME280;2397;53.576;9.746;2023-02-19T12:06:17;102169.97;;;6.91;100.00
4767;BME280;2397;53.576;9.746;2023-02-19T12:09:13;102163.31;;;7.29;100.00
4767;BME280;2397;53.576;9.746;2023-02-19T12:14:51;102180.47;;;7.29;100.00
4767;BME280;2397;53.576;9.746;2023-02-19T12:17:32;102180.34;;;7.09;100.00
4767;BME280;2397;53.576;9.746;2023-02-19T12:20:09;102178.00;;;7.14;100.00
4767;BME280;2397;53.576;9.746;2023-02-19T12:22:50;102186.16;;;7.05;100.00
4767;BME280;2397;53.576;9.746;2023-02-19T12:28:26;102197.63;;;7.12;100.00
4767;BME280;2397;53.576;9.746;2023-02-19T12:37:03;102207.97;;;7.30;100.00
4767;BME280;2397;53.576;9.746;2023-02-19T12:45:17;102189.22;;;7.85;100.00
4767;BME280;2397;53.576;9.746;2023-02-19T12:47:56;102183.53;;;7.92;100.00
4767;BME280;2397;53.576;9.746;2023-02-19T12:50:25;102188.75;;;8.12;100.00
4767;BME280;2397;53.576;9.746;2023-02-19T12:53:00;102198.47;;;7.99;100.00
4767;BME280;2397;53.576;9.746;2023-02-19T12:55:31;102195.59;;;8.11;100.00
4767;BME280;2397;53.576;9.746;2023-02-19T12:58:02;102184.09;;;8.42;100.00
4767;BME280;2397;53.576;9.746;2023-02-19T13:00:40;102175.31;;;8.76;100.00
4767;BME280;2397;53.576;9.746;2023-02-19T13:03:13;102176.91;;;8.53;100.00
4767;BME280;2397;53.576;9.746;2023-02-19T13:05:52;102181.66;;;8.63;97.93
4767;BME280;2397;53.576;9.746;2023-02-19T13:08:31;102180.22;;;8.70;93.26
4767;BME280;2397;53.576;9.746;2023-02-19T13:11:27;102175.59;;;8.82;96.84
4767;BME280;2397;53.576;9.746;2023-02-19T13:14:14;102166.28;;;8.86;97.24
4767;BME280;2397;53.576;9.746;2023-02-19T13:16:47;102167.09;;;8.85;96.45
4767;BME280;2397;53.576;9.746;2023-02-19T13:19:15;102169.81;;;8.88;96.17
4767;BME280;2397;53.576;9.746;2023-02-19T13:21:43;102174.16;;;8.89;94.38
4767;BME280;2397;53.576;9.746;2023-02-19T13:24:34;102162.72;;;8.84;95.65
4767;BME280;2397;53.576;9.746;2023-02-19T13:27:04;102165.03;;;8.97;95.54
4767;BME280;2397;53.576;9.746;2023-02-19T13:37:39;102165.03;;;9.17;94.01
4767;BME280;2397;53.576;9.746;2023-02-19T13:40:29;102163.94;;;9.11;90.39
4767;BME280;2397;53.576;9.746;2023-02-19T13:42:58;102147.78;;;8.96;88.59
4767;BME280;2397;53.576;9.746;2023-02-19T13:45:36;102159.34;;;8.85;89.05
4767;BME280;2397;53.576;9.746;2023-02-19T14:14:45;102198.22;;;8.31;94.25
4767;BME280;2397;53.576;9.746;2023-02-19T14:17:41;102189.44;;;8.27;96.45
4767;BME280;2397;53.576;9.746;2023-02-19T14:25:49;102190.50;;;8.13;98.95
4767;BME280;2397;53.576;9.746;2023-02-19T14:28:20;102178.81;;;8.01;99.44
4767;BME280;2397;53.576;9.746;2023-02-19T14:31:01;102183.91;;;7.82;100.00
4767;BME280;2397;53.576;9.746;2023-02-19T14:33:35;102179.69;;;7.48;100.00
4767;BME280;2397;53.576;9.746;2023-02-19T14:39:30;102169.72;;;7.19;100.00
4767;BME280;2397;53.576;9.746;2023-02-19T14:42:00;102178.31;;;7.20;100.00
4767;BME280;2397;53.576;9.746;2023-02-19T14:44:34;102174.19;;;7.24;100.00
4767;BME280;2397;53.576;9.746;2023-02-19T14:47:13;102169.88;;;7.23;100.00
4767;BME280;2397;53.576;9.746;2023-02-19T14:49:49;102161.53;;;7.28;100.00
4767;BME280;2397;53.576;9.746;2023-02-19T14:52:31;102158.31;;;7.32;100.00
4767;BME280;2397;53.576;9.746;2023-02-19T14:57:39;102147.06;;;7.30;100.00
4767;BME280;2397;53.576;9.746;2023-02-19T15:00:23;102152.56;;;7.20;100.00
4767;BME280;2397;53.576;9.746;2023-02-19T15:02:50;102162.91;;;7.03;100.00
4767;BME280;2397;53.576;9.746;2023-02-19T15:05:22;102164.50;;;7.01;100.00
4767;BME280;2397;53.576;9.746;2023-02-19T15:07:50;102157.94;;;6.90;100.00
4767;BME280;2397;53.576;9.746;2023-02-19T15:10:18;102165.91;;;6.78;100.00
4767;BME280;2397;53.576;9.746;2023-02-19T15:12:48;102162.91;;;6.71;100.00
4767;BME280;2397;53.576;9.746;2023-02-19T15:15:19;102161.56;;;6.77;100.00
4767;BME280;2397;53.576;9.746;2023-02-19T15:17:47;102164.66;;;6.88;100.00
4767;BME280;2397;53.576;9.746;2023-02-19T15:20:21;102169.97;;;6.91;100.00